createdAt,value
2018-05-07T00:00:26.041Z,0.00
2018-05-07T00:01:26.070Z,0.00
2018-05-07T00:02:26.085Z,0.00
2018-05-07T00:03:26.113Z,0.00
2018-05-07T00:04:26.163Z,0.00
2018-05-07T00:05:26.149Z,0.00
2018-05-07T00:06:26.182Z,0.00
2018-05-07T00:07:26.198Z,0.00
2018-05-07T00:08:26.231Z,0.00
2018-05-07T00:09:26.269Z,0.00
2018-05-07T00:10:26.260Z,0.00
2018-05-07T00:11:26.275Z,0.00
2018-05-07T00:12:26.305Z,0.00
2018-05-07T00:13:26.328Z,0.00
2018-05-07T00:14:26.339Z,0.00
2018-05-07T00:15:26.363Z,0.00
2018-05-07T00:16:26.388Z,0.00
2018-05-07T00:17:26.401Z,0.00
2018-05-07T00:18:26.427Z,0.00
2018-05-07T00:19:26.450Z,0.00
2018-05-07T00:20:26.465Z,0.00
2018-05-07T00:21:26.497Z,0.00
2018-05-07T00:22:26.513Z,0.00
2018-05-07T00:23:26.530Z,0.00
2018-05-07T00:24:26.554Z,0.00
2018-05-07T00:25:26.573Z,0.00
2018-05-07T00:26:26.591Z,0.00
2018-05-07T00:27:26.623Z,0.00
2018-05-07T00:28:26.636Z,0.00
2018-05-07T00:29:26.662Z,0.00
2018-05-07T00:30:26.684Z,0.00
2018-05-07T00:31:26.707Z,0.00
2018-05-07T00:32:26.718Z,0.00
2018-05-07T00:33:26.747Z,0.00
2018-05-07T00:34:26.765Z,0.00
2018-05-07T00:35:26.792Z,0.00
2018-05-07T00:36:26.810Z,0.00
2018-05-07T00:37:26.822Z,0.00
2018-05-07T00:38:26.854Z,0.00
2018-05-07T00:39:26.865Z,0.00
2018-05-07T00:40:26.888Z,0.00
2018-05-07T00:41:26.914Z,0.00
2018-05-07T00:42:26.931Z,0.00
2018-05-07T00:43:26.956Z,0.00
2018-05-07T00:44:26.976Z,0.00
2018-05-07T00:45:26.994Z,0.00
2018-05-07T00:46:27.019Z,0.00
2018-05-07T00:47:27.037Z,0.00
2018-05-07T00:48:27.064Z,0.00
2018-05-07T00:49:27.076Z,0.00
2018-05-07T00:50:27.101Z,0.00
2018-05-07T00:51:27.175Z,0.00
2018-05-07T00:52:27.139Z,0.00
2018-05-07T00:53:27.168Z,0.00
2018-05-07T00:54:27.187Z,0.00
2018-05-07T00:55:27.205Z,0.00
2018-05-07T00:56:27.228Z,0.00
2018-05-07T00:57:27.249Z,0.00
2018-05-07T00:58:27.271Z,0.00
2018-05-07T00:59:27.289Z,0.00
2018-05-07T01:00:27.315Z,0.00
2018-05-07T01:01:27.333Z,0.00
2018-05-07T01:02:27.351Z,0.00
2018-05-07T01:03:27.370Z,0.00
2018-05-07T01:04:27.396Z,0.00
2018-05-07T01:05:27.418Z,0.00
2018-05-07T01:06:27.433Z,0.00
2018-05-07T01:07:27.463Z,0.00
2018-05-07T01:08:27.482Z,0.00
2018-05-07T01:09:27.501Z,0.00
2018-05-07T01:10:27.525Z,0.00
2018-05-07T01:11:27.538Z,0.00
2018-05-07T01:12:27.566Z,0.00
2018-05-07T01:13:27.582Z,0.00
2018-05-07T01:14:27.607Z,0.00
2018-05-07T01:15:27.629Z,0.00
2018-05-07T01:16:27.648Z,0.00
2018-05-07T01:17:27.672Z,0.00
2018-05-07T01:18:27.688Z,0.00
2018-05-07T01:19:27.708Z,0.00
2018-05-07T01:20:27.734Z,0.00
2018-05-07T01:21:27.746Z,0.00
2018-05-07T01:22:27.770Z,0.00
2018-05-07T01:23:27.794Z,0.00
2018-05-07T01:24:27.808Z,0.00
2018-05-07T01:25:27.838Z,0.00
2018-05-07T01:26:27.855Z,0.00
2018-05-07T01:27:27.873Z,0.00
2018-05-07T01:28:27.897Z,0.00
2018-05-07T01:29:27.923Z,0.00
2018-05-07T01:30:27.932Z,0.00
2018-05-07T01:31:27.965Z,0.00
2018-05-07T01:32:27.978Z,0.00
2018-05-07T01:33:28.005Z,0.00
2018-05-07T01:34:28.025Z,0.00
2018-05-07T01:35:28.042Z,0.00
2018-05-07T01:36:28.064Z,0.00
2018-05-07T01:37:28.083Z,0.00
2018-05-07T01:38:28.100Z,0.00
2018-05-07T01:39:28.133Z,0.00
2018-05-07T01:40:28.144Z,0.00
2018-05-07T01:41:28.166Z,0.00
2018-05-07T01:42:28.190Z,0.00
2018-05-07T01:43:28.203Z,0.00
2018-05-07T01:44:28.230Z,0.00
2018-05-07T01:45:28.251Z,0.00
2018-05-07T01:46:28.274Z,0.00
2018-05-07T01:47:28.290Z,0.00
2018-05-07T01:48:28.305Z,0.00
2018-05-07T01:49:28.335Z,0.00
2018-05-07T01:50:28.347Z,0.00
2018-05-07T01:51:28.372Z,0.00
2018-05-07T01:52:28.391Z,0.00
2018-05-07T01:53:28.419Z,0.00
2018-05-07T01:54:28.433Z,0.00
2018-05-07T01:55:28.457Z,0.00
2018-05-07T01:56:28.477Z,0.00
2018-05-07T01:57:28.496Z,0.00
2018-05-07T01:58:28.520Z,0.00
2018-05-07T01:59:28.537Z,0.00
2018-05-07T02:00:28.560Z,0.00
2018-05-07T02:01:28.579Z,0.00
2018-05-07T02:02:28.595Z,0.00
2018-05-07T02:03:28.625Z,0.00
2018-05-07T02:04:28.646Z,0.00
2018-05-07T02:05:28.663Z,0.00
2018-05-07T02:06:28.687Z,0.00
2018-05-07T02:07:28.705Z,0.00
2018-05-07T02:08:28.718Z,0.00
2018-05-07T02:09:28.748Z,0.00
2018-05-07T02:10:28.761Z,0.00
2018-05-07T02:11:28.791Z,0.00
2018-05-07T02:12:28.810Z,0.00
2018-05-07T02:13:28.822Z,0.00
2018-05-07T02:14:28.852Z,0.00
2018-05-07T02:15:28.865Z,0.00
2018-05-07T02:16:28.886Z,0.00
2018-05-07T02:17:28.910Z,0.00
2018-05-07T02:18:28.928Z,0.00
2018-05-07T02:19:28.952Z,0.00
2018-05-07T02:20:28.966Z,0.00
2018-05-07T02:21:28.989Z,0.00
2018-05-07T02:22:29.013Z,0.00
2018-05-07T02:23:29.038Z,0.00
2018-05-07T02:24:29.056Z,0.00
2018-05-07T02:25:29.069Z,0.00
2018-05-07T02:26:29.099Z,0.00
2018-05-07T02:27:29.110Z,0.00
2018-05-07T02:28:29.136Z,0.00
2018-05-07T02:29:29.154Z,0.00
2018-05-07T02:30:29.178Z,0.00
2018-05-07T02:31:29.203Z,0.00
2018-05-07T02:32:29.220Z,0.00
2018-05-07T02:33:29.242Z,0.00
2018-05-07T02:34:29.254Z,0.00
2018-05-07T02:35:29.284Z,0.00
2018-05-07T02:36:29.297Z,0.00
2018-05-07T02:37:29.323Z,0.00
2018-05-07T02:38:29.345Z,0.00
2018-05-07T02:39:29.363Z,0.00
2018-05-07T02:40:29.387Z,0.00
2018-05-07T02:41:29.401Z,0.00
2018-05-07T02:42:29.418Z,0.00
2018-05-07T02:43:29.448Z,0.00
2018-05-07T02:44:29.466Z,0.00
2018-05-07T02:45:29.479Z,0.00
2018-05-07T02:46:29.505Z,0.00
2018-05-07T02:47:29.525Z,0.00
2018-05-07T02:48:29.548Z,0.00
2018-05-07T02:49:29.567Z,0.00
2018-05-07T02:50:29.589Z,0.00
2018-05-07T02:51:29.603Z,0.00
2018-05-07T02:52:29.621Z,0.00
2018-05-07T02:53:29.650Z,0.00
2018-05-07T02:54:29.661Z,0.00
2018-05-07T02:55:29.687Z,0.00
2018-05-07T02:56:29.704Z,0.00
2018-05-07T02:57:29.729Z,0.00
2018-05-07T02:58:29.752Z,0.00
2018-05-07T02:59:29.763Z,0.00
2018-05-07T03:00:29.787Z,0.00
2018-05-07T03:01:29.813Z,0.00
2018-05-07T03:02:29.830Z,0.00
2018-05-07T03:03:29.849Z,0.00
2018-05-07T03:04:29.873Z,0.00
2018-05-07T03:05:29.889Z,0.00
2018-05-07T03:06:29.907Z,0.00
2018-05-07T03:07:29.930Z,0.00
2018-05-07T03:08:29.956Z,0.00
2018-05-07T03:09:29.972Z,4.00
2018-05-07T03:10:29.990Z,4.00
2018-05-07T03:11:30.015Z,4.00
2018-05-07T03:12:30.034Z,0.00
2018-05-07T03:13:30.053Z,4.00
2018-05-07T03:14:30.074Z,4.00
2018-05-07T03:15:30.091Z,0.00
2018-05-07T03:16:30.117Z,4.00
2018-05-07T03:17:30.192Z,8.00
2018-05-07T03:18:30.160Z,4.00
2018-05-07T03:19:30.170Z,4.00
2018-05-07T03:20:30.192Z,8.00
2018-05-07T03:21:30.216Z,8.00
2018-05-07T03:22:30.232Z,8.00
2018-05-07T03:23:30.251Z,12.00
2018-05-07T03:24:30.270Z,16.00
2018-05-07T03:25:30.297Z,12.00
2018-05-07T03:26:30.311Z,16.00
2018-05-07T03:27:30.340Z,16.00
2018-05-07T03:28:30.357Z,20.00
2018-05-07T03:29:30.373Z,24.00
2018-05-07T03:30:30.397Z,28.00
2018-05-07T03:31:30.421Z,36.00
2018-05-07T03:32:30.446Z,40.00
2018-05-07T03:33:30.457Z,44.00
2018-05-07T03:34:30.480Z,52.00
2018-05-07T03:35:30.493Z,56.00
2018-05-07T03:36:30.521Z,64.00
2018-05-07T03:37:30.604Z,72.00
2018-05-07T03:38:30.556Z,80.00
2018-05-07T03:39:30.580Z,92.00
2018-05-07T03:40:30.652Z,96.00
2018-05-07T03:41:30.621Z,112.00
2018-05-07T03:42:30.640Z,124.00
2018-05-07T03:43:30.684Z,140.00
2018-05-07T03:44:30.683Z,148.00
2018-05-07T03:45:30.693Z,168.00
2018-05-07T03:46:30.722Z,180.00
2018-05-07T03:47:30.740Z,200.00
2018-05-07T03:48:30.759Z,220.00
2018-05-07T03:49:30.782Z,236.00
2018-05-07T03:50:30.800Z,256.00
2018-05-07T03:51:30.818Z,276.00
2018-05-07T03:52:30.840Z,300.00
2018-05-07T03:53:30.858Z,320.00
2018-05-07T03:54:30.876Z,344.00
2018-05-07T03:55:30.904Z,368.00
2018-05-07T03:56:30.921Z,396.00
2018-05-07T03:57:30.942Z,420.00
2018-05-07T03:58:30.964Z,448.00
2018-05-07T03:59:30.975Z,476.00
2018-05-07T04:00:31.001Z,504.00
2018-05-07T04:01:31.018Z,536.00
2018-05-07T04:02:31.035Z,568.00
2018-05-07T04:03:31.064Z,596.00
2018-05-07T04:04:31.080Z,628.00
2018-05-07T04:05:31.101Z,656.00
2018-05-07T04:06:31.124Z,688.00
2018-05-07T04:07:31.136Z,724.00
2018-05-07T04:08:31.164Z,752.00
2018-05-07T04:09:31.174Z,784.00
2018-05-07T04:10:31.198Z,816.00
2018-05-07T04:11:31.221Z,848.00
2018-05-07T04:12:31.236Z,880.00
2018-05-07T04:13:31.264Z,916.00
2018-05-07T04:14:31.280Z,948.00
2018-05-07T04:15:31.299Z,980.00
2018-05-07T04:16:31.319Z,1012.00
2018-05-07T04:17:31.355Z,1048.00
2018-05-07T04:18:31.357Z,1076.00
2018-05-07T04:19:31.381Z,1108.00
2018-05-07T04:20:31.401Z,1144.00
2018-05-07T04:21:31.424Z,1176.00
2018-05-07T04:22:31.442Z,1208.00
2018-05-07T04:23:31.504Z,1240.00
2018-05-07T04:24:31.476Z,1272.00
2018-05-07T04:25:31.503Z,1304.00
2018-05-07T04:26:31.515Z,1332.00
2018-05-07T04:27:31.547Z,1364.00
2018-05-07T04:28:31.563Z,1396.00
2018-05-07T04:29:31.575Z,1428.00
2018-05-07T04:30:31.605Z,1460.00
2018-05-07T04:31:31.615Z,1492.00
2018-05-07T04:32:31.641Z,1520.00
2018-05-07T04:33:31.656Z,1552.00
2018-05-07T04:34:31.681Z,1580.00
2018-05-07T04:35:31.698Z,1608.00
2018-05-07T04:36:31.723Z,1636.00
2018-05-07T04:37:31.783Z,1668.00
2018-05-07T04:38:31.757Z,1696.00
2018-05-07T04:39:31.775Z,1724.00
2018-05-07T04:40:31.796Z,1752.00
2018-05-07T04:41:31.821Z,1784.00
2018-05-07T04:42:31.843Z,1812.00
2018-05-07T04:43:31.855Z,1836.00
2018-05-07T04:44:31.883Z,1864.00
2018-05-07T04:45:31.897Z,1892.00
2018-05-07T04:46:31.917Z,1920.00
2018-05-07T04:47:31.943Z,1944.00
2018-05-07T04:48:31.958Z,1976.00
2018-05-07T04:49:31.975Z,2004.00
2018-05-07T04:50:32.004Z,2028.00
2018-05-07T04:51:32.024Z,2052.00
2018-05-07T04:52:32.040Z,2076.00
2018-05-07T04:53:32.058Z,2104.00
2018-05-07T04:54:32.081Z,2132.00
2018-05-07T04:55:32.099Z,2152.00
2018-05-07T04:56:32.114Z,2184.00
2018-05-07T04:57:32.143Z,2208.00
2018-05-07T04:58:32.155Z,2232.00
2018-05-07T04:59:32.183Z,2256.00
2018-05-07T05:00:32.202Z,2284.00
2018-05-07T05:01:32.217Z,2312.00
2018-05-07T05:02:32.242Z,2344.00
2018-05-07T05:03:32.255Z,2368.00
2018-05-07T05:04:32.285Z,2392.00
2018-05-07T05:05:32.305Z,2420.00
2018-05-07T05:06:32.321Z,2444.00
2018-05-07T05:07:32.344Z,2472.00
2018-05-07T05:08:32.357Z,2496.00
2018-05-07T05:09:32.381Z,2524.00
2018-05-07T05:10:32.403Z,2548.00
2018-05-07T05:11:32.416Z,2580.00
2018-05-07T05:12:32.437Z,2604.00
2018-05-07T05:13:32.461Z,2636.00
2018-05-07T05:14:32.484Z,2668.00
2018-05-07T05:15:32.496Z,2696.00
2018-05-07T05:16:32.521Z,2720.00
2018-05-07T05:17:32.538Z,2756.00
2018-05-07T05:18:32.556Z,2784.00
2018-05-07T05:19:32.584Z,2820.00
2018-05-07T05:20:32.598Z,2880.00
2018-05-07T05:21:32.705Z,4280.00
2018-05-07T05:22:32.638Z,7416.00
2018-05-07T05:23:32.662Z,11168.00
2018-05-07T05:24:32.688Z,14276.00
2018-05-07T05:25:32.700Z,17536.00
2018-05-07T05:26:32.722Z,19264.00
2018-05-07T05:27:32.739Z,19264.00
2018-05-07T05:28:32.756Z,19200.00
2018-05-07T05:29:32.786Z,20576.00
2018-05-07T05:30:32.803Z,22656.00
2018-05-07T05:31:32.822Z,25248.00
2018-05-07T05:32:32.847Z,30016.00
2018-05-07T05:33:32.860Z,34048.00
2018-05-07T05:34:32.886Z,39584.00
2018-05-07T05:35:32.907Z,44864.00
2018-05-07T05:36:32.922Z,51040.00
2018-05-07T05:37:32.954Z,52256.00
2018-05-07T05:38:32.963Z,45280.00
2018-05-07T05:39:32.989Z,37888.00
2018-05-07T05:40:33.015Z,33184.00
2018-05-07T05:41:33.037Z,33568.00
2018-05-07T05:42:33.057Z,32032.00
2018-05-07T05:43:33.126Z,29152.00
2018-05-07T05:44:33.102Z,30240.00
2018-05-07T05:45:33.113Z,31296.00
2018-05-07T05:46:33.143Z,26944.00
2018-05-07T05:47:33.157Z,23552.00
2018-05-07T05:48:33.178Z,24992.00
2018-05-07T05:49:33.208Z,28064.00
2018-05-07T05:50:33.222Z,25856.00
2018-05-07T05:51:33.253Z,21568.00
2018-05-07T05:52:33.273Z,21696.00
2018-05-07T05:53:33.287Z,22848.00
2018-05-07T05:54:33.321Z,23936.00
2018-05-07T05:55:33.332Z,23040.00
2018-05-07T05:56:33.354Z,21728.00
2018-05-07T05:57:33.384Z,20576.00
2018-05-07T05:58:33.404Z,20320.00
2018-05-07T05:59:33.425Z,22080.00
2018-05-07T06:00:33.443Z,24576.00
2018-05-07T06:01:33.474Z,22080.00
2018-05-07T06:02:33.499Z,18912.00
2018-05-07T06:03:33.515Z,19936.00
2018-05-07T06:04:33.541Z,21280.00
2018-05-07T06:05:33.557Z,21504.00
2018-05-07T06:06:33.583Z,21120.00
2018-05-07T06:07:33.609Z,20608.00
2018-05-07T06:08:33.631Z,21120.00
2018-05-07T06:09:33.652Z,20448.00
2018-05-07T06:10:33.672Z,19840.00
2018-05-07T06:11:33.700Z,21120.00
2018-05-07T06:12:33.725Z,23328.00
2018-05-07T06:13:33.743Z,24608.00
2018-05-07T06:14:33.857Z,22176.00
2018-05-07T06:15:33.789Z,20224.00
2018-05-07T06:16:33.882Z,22016.00
2018-05-07T06:17:33.844Z,24064.00
2018-05-07T06:18:33.868Z,25632.00
2018-05-07T06:19:33.884Z,26048.00
2018-05-07T06:20:33.914Z,25536.00
2018-05-07T06:21:33.933Z,25952.00
2018-05-07T06:22:33.956Z,27936.00
2018-05-07T06:23:33.989Z,32000.00
2018-05-07T06:24:34.012Z,35104.00
2018-05-07T06:25:34.028Z,36960.00
2018-05-07T06:26:34.061Z,46368.00
2018-05-07T06:27:34.083Z,52032.00
2018-05-07T06:28:34.104Z,42336.00
2018-05-07T06:29:34.128Z,31488.00
2018-05-07T06:30:34.150Z,27488.00
2018-05-07T06:31:34.183Z,24960.00
2018-05-07T06:32:34.199Z,22112.00
2018-05-07T06:33:34.232Z,19744.00
2018-05-07T06:34:34.248Z,18432.00
2018-05-07T06:35:34.282Z,17600.00
2018-05-07T06:36:34.308Z,16896.00
2018-05-07T06:37:34.323Z,16280.00
2018-05-07T06:38:34.356Z,16048.00
2018-05-07T06:39:34.374Z,15892.00
2018-05-07T06:40:34.399Z,15792.00
2018-05-07T06:41:34.428Z,15740.00
2018-05-07T06:42:34.449Z,15804.00
2018-05-07T06:43:34.476Z,16232.00
2018-05-07T06:44:34.507Z,19008.00
2018-05-07T06:45:34.530Z,32032.00
2018-05-07T06:46:34.554Z,46208.00
2018-05-07T06:47:34.595Z,51136.00
2018-05-07T06:48:34.604Z,51968.00
2018-05-07T06:49:34.631Z,53632.00
2018-05-07T06:50:34.654Z,55328.00
2018-05-07T06:51:34.683Z,56352.00
2018-05-07T06:52:34.713Z,55424.00
2018-05-07T06:53:34.733Z,54432.00
2018-05-07T06:54:34.760Z,57536.00
2018-05-07T06:55:34.784Z,59520.00
2018-05-07T06:56:34.815Z,61664.00
2018-05-07T06:57:34.846Z,62144.00
2018-05-07T06:58:34.861Z,61504.00
2018-05-07T06:59:34.885Z,60992.00
2018-05-07T07:00:34.911Z,61376.00
2018-05-07T07:01:34.946Z,64608.00
2018-05-07T07:02:35.067Z,65856.00
2018-05-07T07:03:35.005Z,64480.00
2018-05-07T07:04:35.017Z,64416.00
2018-05-07T07:05:35.054Z,65312.00
2018-05-07T07:06:35.070Z,65536.00
2018-05-07T07:07:35.105Z,66112.00
2018-05-07T07:08:35.299Z,68160.00
2018-05-07T07:09:35.149Z,70016.00
2018-05-07T07:10:35.185Z,69632.00
2018-05-07T07:11:35.204Z,68448.00
2018-05-07T07:12:35.233Z,69376.00
2018-05-07T07:13:35.268Z,70080.00
2018-05-07T07:14:35.285Z,69760.00
2018-05-07T07:15:35.317Z,68736.00
2018-05-07T07:16:35.341Z,67744.00
2018-05-07T07:17:35.365Z,67712.00
2018-05-07T07:18:35.396Z,67392.00
2018-05-07T07:19:35.428Z,67584.00
2018-05-07T07:20:35.458Z,68768.00
2018-05-07T07:21:35.479Z,67872.00
2018-05-07T07:22:35.508Z,67392.00
2018-05-07T07:23:35.539Z,69600.00
2018-05-07T07:24:35.559Z,71360.00
2018-05-07T07:25:35.597Z,70016.00
2018-05-07T07:26:35.625Z,70304.00
2018-05-07T07:27:35.647Z,71808.00
2018-05-07T07:28:35.674Z,71040.00
2018-05-07T07:29:35.708Z,71200.00
2018-05-07T07:30:35.737Z,70784.00
2018-05-07T07:31:35.763Z,72320.00
2018-05-07T07:32:35.784Z,73056.00
2018-05-07T07:33:35.814Z,72608.00
2018-05-07T07:34:35.847Z,72064.00
2018-05-07T07:35:35.876Z,71008.00
2018-05-07T07:36:35.906Z,69792.00
2018-05-07T07:37:35.930Z,70944.00
2018-05-07T07:38:35.955Z,70048.00
2018-05-07T07:39:35.994Z,68192.00
2018-05-07T07:40:36.014Z,69152.00
2018-05-07T07:41:36.046Z,68064.00
2018-05-07T07:42:36.077Z,71552.00
2018-05-07T07:43:36.100Z,73984.00
2018-05-07T07:44:36.137Z,71936.00
2018-05-07T07:45:36.155Z,73024.00
2018-05-07T07:46:36.187Z,73408.00
2018-05-07T07:47:36.218Z,73056.00
2018-05-07T07:48:36.242Z,73824.00
2018-05-07T07:49:36.281Z,72640.00
2018-05-07T07:50:36.307Z,68992.00
2018-05-07T07:51:36.331Z,71872.00
2018-05-07T07:52:36.357Z,75072.00
2018-05-07T07:53:36.419Z,76032.00
2018-05-07T07:54:36.422Z,76160.00
2018-05-07T07:55:36.448Z,76032.00
2018-05-07T07:56:36.483Z,75264.00
2018-05-07T07:57:36.506Z,75904.00
2018-05-07T07:58:36.537Z,77568.00
2018-05-07T07:59:36.570Z,75552.00
2018-05-07T08:00:36.593Z,73088.00
2018-05-07T08:01:36.691Z,75776.00
2018-05-07T08:02:36.657Z,77408.00
2018-05-07T08:03:36.697Z,78784.00
2018-05-07T08:04:36.733Z,79680.00
2018-05-07T08:05:36.743Z,79616.00
2018-05-07T08:06:36.781Z,79808.00
2018-05-07T08:07:36.808Z,80704.00
2018-05-07T08:08:36.836Z,79232.00
2018-05-07T08:09:36.870Z,76448.00
2018-05-07T08:10:36.902Z,76416.00
2018-05-07T08:11:36.925Z,78240.00
2018-05-07T08:12:36.961Z,76800.00
2018-05-07T08:13:36.987Z,77600.00
2018-05-07T08:14:37.016Z,78016.00
2018-05-07T08:15:37.054Z,77248.00
2018-05-07T08:16:37.087Z,78496.00
2018-05-07T08:17:37.108Z,78912.00
2018-05-07T08:18:37.145Z,74528.00
2018-05-07T08:19:37.181Z,71520.00
2018-05-07T08:20:37.327Z,74784.00
2018-05-07T08:21:37.238Z,77536.00
2018-05-07T08:22:37.267Z,77312.00
2018-05-07T08:23:37.294Z,77952.00
2018-05-07T08:24:37.394Z,78912.00
2018-05-07T08:25:37.365Z,78624.00
2018-05-07T08:26:37.389Z,77792.00
2018-05-07T08:27:37.419Z,76992.00
2018-05-07T08:28:37.454Z,77856.00
2018-05-07T08:29:37.480Z,77920.00
2018-05-07T08:30:37.511Z,76736.00
2018-05-07T08:31:37.546Z,78464.00
2018-05-07T08:32:37.577Z,79360.00
2018-05-07T08:33:37.604Z,81312.00
2018-05-07T08:34:37.640Z,81472.00
2018-05-07T08:35:37.676Z,80160.00
2018-05-07T08:36:37.717Z,79520.00
2018-05-07T08:37:37.740Z,78592.00
2018-05-07T08:38:37.769Z,79488.00
2018-05-07T08:39:37.794Z,80736.00
2018-05-07T08:40:37.824Z,79808.00
2018-05-07T08:41:37.860Z,78368.00
2018-05-07T08:42:37.887Z,78976.00
2018-05-07T08:43:37.924Z,79872.00
2018-05-07T08:44:37.953Z,79072.00
2018-05-07T08:45:37.982Z,79680.00
2018-05-07T08:46:38.020Z,78624.00
2018-05-07T08:47:38.046Z,78240.00
2018-05-07T08:48:38.161Z,80672.00
2018-05-07T08:49:38.173Z,80288.00
2018-05-07T08:50:38.141Z,80576.00
2018-05-07T08:51:38.175Z,82752.00
2018-05-07T08:52:38.206Z,81792.00
2018-05-07T08:53:38.241Z,80192.00
2018-05-07T08:54:38.269Z,80960.00
2018-05-07T08:55:38.300Z,82912.00
2018-05-07T08:56:38.333Z,82240.00
2018-05-07T08:57:38.363Z,81632.00
2018-05-07T08:58:38.391Z,81056.00
2018-05-07T08:59:38.435Z,79552.00
2018-05-07T09:00:38.460Z,79968.00
2018-05-07T09:01:38.491Z,80256.00
2018-05-07T09:02:38.528Z,80224.00
2018-05-07T09:03:38.549Z,81472.00
2018-05-07T09:04:38.588Z,82560.00
2018-05-07T09:05:38.623Z,83008.00
2018-05-07T09:06:38.645Z,84064.00
2018-05-07T09:07:38.685Z,84128.00
2018-05-07T09:08:38.716Z,85728.00
2018-05-07T09:09:38.750Z,87264.00
2018-05-07T09:10:38.781Z,87072.00
2018-05-07T09:11:38.804Z,86912.00
2018-05-07T09:12:38.841Z,85568.00
2018-05-07T09:13:38.887Z,86400.00
2018-05-07T09:14:38.901Z,86208.00
2018-05-07T09:15:38.935Z,86496.00
2018-05-07T09:16:38.969Z,84800.00
2018-05-07T09:17:38.999Z,83008.00
2018-05-07T09:18:39.030Z,83392.00
2018-05-07T09:19:39.063Z,82176.00
2018-05-07T09:20:39.098Z,80288.00
2018-05-07T09:21:39.120Z,81408.00
2018-05-07T09:22:39.162Z,82048.00
2018-05-07T09:23:39.196Z,83200.00
2018-05-07T09:24:39.268Z,83104.00
2018-05-07T09:25:39.258Z,84960.00
2018-05-07T09:26:39.293Z,88032.00
2018-05-07T09:27:39.314Z,88480.00
2018-05-07T09:28:39.353Z,86048.00
2018-05-07T09:29:39.383Z,87168.00
2018-05-07T09:30:39.408Z,89728.00
2018-05-07T09:31:39.527Z,88992.00
2018-05-07T09:32:39.479Z,88896.00
2018-05-07T09:33:39.510Z,91168.00
2018-05-07T09:34:39.552Z,89536.00
2018-05-07T09:35:39.573Z,86400.00
2018-05-07T09:36:39.610Z,86432.00
2018-05-07T09:37:39.637Z,86304.00
2018-05-07T09:38:39.679Z,87680.00
2018-05-07T09:39:39.707Z,84480.00
2018-05-07T09:40:39.741Z,82048.00
2018-05-07T09:41:39.770Z,80352.00
2018-05-07T09:42:39.804Z,82272.00
2018-05-07T09:43:39.829Z,84224.00
2018-05-07T09:44:39.868Z,82272.00
2018-05-07T09:45:39.893Z,81280.00
2018-05-07T09:46:39.942Z,83872.00
2018-05-07T09:47:39.962Z,86144.00
2018-05-07T09:48:39.988Z,85728.00
2018-05-07T09:49:40.029Z,85344.00
2018-05-07T09:50:40.060Z,85728.00
2018-05-07T09:51:40.090Z,86432.00
2018-05-07T09:52:40.125Z,86144.00
2018-05-07T09:53:40.155Z,83328.00
2018-05-07T09:54:40.189Z,83744.00
2018-05-07T09:55:40.215Z,86592.00
2018-05-07T09:56:40.326Z,87552.00
2018-05-07T09:57:40.288Z,83840.00
2018-05-07T09:58:40.313Z,82464.00
2018-05-07T09:59:40.354Z,82816.00
2018-05-07T10:00:40.384Z,83232.00
2018-05-07T10:01:40.415Z,82816.00
2018-05-07T10:02:40.443Z,84448.00
2018-05-07T10:03:40.485Z,85056.00
2018-05-07T10:04:40.511Z,85952.00
2018-05-07T10:05:40.547Z,86464.00
2018-05-07T10:06:40.583Z,86272.00
2018-05-07T10:07:40.604Z,85696.00
2018-05-07T10:08:40.641Z,85920.00
2018-05-07T10:09:40.677Z,83680.00
2018-05-07T10:10:40.712Z,81696.00
2018-05-07T10:11:40.742Z,83264.00
2018-05-07T10:12:40.769Z,83648.00
2018-05-07T10:13:40.808Z,82048.00
2018-05-07T10:14:40.843Z,82496.00
2018-05-07T10:15:40.864Z,82784.00
2018-05-07T10:16:40.907Z,83872.00
2018-05-07T10:17:40.934Z,84800.00
2018-05-07T10:18:40.967Z,82592.00
2018-05-07T10:19:41.003Z,82144.00
2018-05-07T10:20:41.030Z,82048.00
2018-05-07T10:21:41.070Z,79232.00
2018-05-07T10:22:41.101Z,79616.00
2018-05-07T10:23:41.150Z,83168.00
2018-05-07T10:24:41.168Z,83040.00
2018-05-07T10:25:41.193Z,81216.00
2018-05-07T10:26:41.230Z,82848.00
2018-05-07T10:27:41.265Z,81024.00
2018-05-07T10:28:41.298Z,81280.00
2018-05-07T10:29:41.340Z,80352.00
2018-05-07T10:30:41.357Z,77344.00
2018-05-07T10:31:41.400Z,77600.00
2018-05-07T10:32:41.424Z,74944.00
2018-05-07T10:33:41.466Z,77344.00
2018-05-07T10:34:41.491Z,77856.00
2018-05-07T10:35:41.533Z,78624.00
2018-05-07T10:36:41.564Z,80416.00
2018-05-07T10:37:41.595Z,80608.00
2018-05-07T10:38:41.631Z,79776.00
2018-05-07T10:39:41.665Z,80256.00
2018-05-07T10:40:41.688Z,78592.00
2018-05-07T10:41:41.729Z,77376.00
2018-05-07T10:42:41.765Z,76608.00
2018-05-07T10:43:41.792Z,80288.00
2018-05-07T10:44:41.824Z,79232.00
2018-05-07T10:45:41.855Z,76544.00
2018-05-07T10:46:41.893Z,78752.00
2018-05-07T10:47:41.925Z,80224.00
2018-05-07T10:48:41.955Z,82496.00
2018-05-07T10:49:41.996Z,82816.00
2018-05-07T10:50:42.024Z,81888.00
2018-05-07T10:51:42.063Z,82016.00
2018-05-07T10:52:42.091Z,80576.00
2018-05-07T10:53:42.126Z,80672.00
2018-05-07T10:54:42.162Z,79520.00
2018-05-07T10:55:42.187Z,78048.00
2018-05-07T10:56:42.226Z,80544.00
2018-05-07T10:57:42.251Z,82720.00
2018-05-07T10:58:42.289Z,82080.00
2018-05-07T10:59:42.319Z,78880.00
2018-05-07T11:00:42.349Z,79552.00
2018-05-07T11:01:42.426Z,83936.00
2018-05-07T11:02:42.422Z,87328.00
2018-05-07T11:03:42.452Z,86400.00
2018-05-07T11:04:42.484Z,87008.00
2018-05-07T11:05:42.525Z,85888.00
2018-05-07T11:06:42.556Z,80704.00
2018-05-07T11:07:42.586Z,79872.00
2018-05-07T11:08:42.623Z,79616.00
2018-05-07T11:09:42.649Z,76768.00
2018-05-07T11:10:42.685Z,73856.00
2018-05-07T11:11:42.722Z,74944.00
2018-05-07T11:12:42.789Z,78944.00
2018-05-07T11:13:42.786Z,80416.00
2018-05-07T11:14:42.822Z,77504.00
2018-05-07T11:15:42.858Z,78272.00
2018-05-07T11:16:42.884Z,76704.00
2018-05-07T11:17:42.915Z,74048.00
2018-05-07T11:18:42.954Z,76608.00
2018-05-07T11:19:43.055Z,75584.00
2018-05-07T11:20:43.019Z,74624.00
2018-05-07T11:21:43.055Z,75136.00
2018-05-07T11:22:43.085Z,75456.00
2018-05-07T11:23:43.122Z,72160.00
2018-05-07T11:24:43.153Z,73248.00
2018-05-07T11:25:43.185Z,74400.00
2018-05-07T11:26:43.221Z,75904.00
2018-05-07T11:27:43.251Z,77632.00
2018-05-07T11:28:43.284Z,78752.00
2018-05-07T11:29:43.321Z,81632.00
2018-05-07T11:30:43.350Z,86368.00
2018-05-07T11:31:43.384Z,99456.00
2018-05-07T11:32:43.419Z,173024.00
2018-05-07T11:33:43.502Z,227360.00
2018-05-07T11:34:44.230Z,147136.00
2018-05-07T11:35:43.597Z,30976.00
2018-05-07T11:36:43.599Z,18912.00
2018-05-07T11:37:44.164Z,18432.00
2018-05-07T11:38:44.027Z,17824.00
2018-05-07T11:39:43.808Z,17344.00
2018-05-07T11:40:44.579Z,16552.00
2018-05-07T11:41:43.772Z,16116.00
2018-05-07T11:42:44.165Z,15652.00
2018-05-07T11:43:43.918Z,15300.00
2018-05-07T11:44:43.852Z,15132.00
2018-05-07T11:45:44.110Z,14964.00
2018-05-07T11:46:43.950Z,14844.00
2018-05-07T11:47:44.577Z,14628.00
2018-05-07T11:48:44.000Z,14372.00
2018-05-07T11:49:44.012Z,14092.00
2018-05-07T11:50:44.055Z,13992.00
2018-05-07T11:51:44.697Z,13892.00
2018-05-07T11:52:44.662Z,13972.00
2018-05-07T11:53:44.791Z,13956.00
2018-05-07T11:54:44.657Z,13908.00
2018-05-07T11:55:44.870Z,13812.00
2018-05-07T11:56:44.887Z,13696.00
2018-05-07T11:57:44.851Z,13736.00
2018-05-07T11:58:44.809Z,13856.00
2018-05-07T11:59:44.344Z,14044.00
2018-05-07T12:00:44.858Z,14300.00
2018-05-07T12:01:45.140Z,14524.00
2018-05-07T12:02:44.904Z,14212.00
2018-05-07T12:03:45.527Z,13688.00
2018-05-07T12:04:45.004Z,13600.00
2018-05-07T12:05:44.588Z,13352.00
2018-05-07T12:06:45.122Z,13160.00
2018-05-07T12:07:44.601Z,13048.00
2018-05-07T12:08:44.643Z,13012.00
2018-05-07T12:09:45.254Z,12976.00
2018-05-07T12:10:44.694Z,12916.00
2018-05-07T12:11:45.084Z,12932.00
2018-05-07T12:12:45.292Z,12900.00
2018-05-07T12:13:44.848Z,12792.00